Time;durP1;ratioP1;P1;durP2;ratioP2;P2;SDS_P1;SDS_P2;PMS_P1;PMS_P2;Temp;Humidity;BMP_temperature;BMP_pressure;BME280_temperature;BME280_humidity;BME280_pressure;Samples;Min_cycle;Max_cycle;Signal;HPM_P1;HPM_P2
2021/05/18 00:00:18;;;;;;;18.07;7.90;;;;;;;13.01;92.33;99264.55;1697520;83;21448;-77
2021/05/18 00:02:45;;;;;;;26.53;8.03;;;;;;;13.04;92.73;99270.64;1702804;84;22031;-76
2021/05/18 00:05:13;;;;;;;23.23;7.97;;;;;;;13.04;92.73;99270.64;1696843;83;21545;-77
2021/05/18 00:07:46;;;;;;;19.27;7.37;;;;;;;13.09;92.47;99263.80;1710172;82;21401;-76
2021/05/18 00:12:57;;;;;;;20.90;8.00;;;;;;;13.15;92.71;99254.55;1699526;83;21618;-76
2021/05/18 00:15:24;;;;;;;20.63;8.63;;;;;;;13.12;92.10;99248.45;1702490;83;21412;-76
2021/05/18 00:17:51;;;;;;;20.07;8.10;;;;;;;13.06;92.01;99254.51;1714983;83;21290;-76
2021/05/18 00:20:18;;;;;;;24.63;8.00;;;;;;;13.05;92.00;99250.77;1679210;84;21963;-78
2021/05/18 00:22:46;;;;;;;14.17;7.53;;;;;;;12.98;91.95;99241.03;1702308;83;21313;-78
2021/05/18 00:25:12;;;;;;;19.17;8.87;;;;;;;12.93;92.02;99241.14;1703209;83;21433;-77
2021/05/18 00:27:39;;;;;;;21.67;8.63;;;;;;;12.99;92.50;99231.89;1690694;84;21301;-77
2021/05/18 00:30:08;;;;;;;30.20;8.63;;;;;;;12.99;92.50;99231.89;1694210;82;21405;-77
2021/05/18 00:32:35;;;;;;;23.33;8.70;;;;;;;13.01;92.08;99234.52;1700894;83;21397;-77
2021/05/18 00:35:02;;;;;;;22.03;8.53;;;;;;;13.03;91.76;99237.69;1681713;84;21703;-75
2021/05/18 00:37:28;;;;;;;25.63;9.40;;;;;;;13.03;91.76;99237.69;1692945;83;21434;-76
2021/05/18 00:39:55;;;;;;;30.37;10.10;;;;;;;13.02;91.93;99236.09;1697426;82;21343;-77
2021/05/18 00:42:22;;;;;;;20.97;9.43;;;;;;;13.01;92.04;99235.85;1699110;83;21554;-76
2021/05/18 00:44:50;;;;;;;17.67;9.53;;;;;;;12.98;91.99;99239.14;1688010;83;21093;-76
2021/05/18 00:47:18;;;;;;;18.70;8.20;;;;;;;12.94;92.08;99240.86;1700947;83;21407;-77
2021/05/18 00:49:45;;;;;;;14.57;8.40;;;;;;;12.94;92.14;99241.41;1700894;83;21455;-77
2021/05/18 00:52:12;;;;;;;12.07;8.50;;;;;;;12.93;92.19;99239.25;1672103;83;21285;-76
2021/05/18 00:59:54;;;;;;;16.53;8.10;;;;;;;13.02;92.07;99237.43;1690720;84;21430;-77
2021/05/18 01:02:23;;;;;;;18.17;8.97;;;;;;;13.02;91.97;99232.06;1696935;83;21479;-77
2021/05/18 01:04:55;;;;;;;13.67;7.90;;;;;;;13.02;91.86;99225.92;1704269;84;21340;-77
2021/05/18 01:07:18;;;;;;;14.43;8.87;;;;;;;13.04;91.81;99221.05;1701695;83;21452;-78
2021/05/18 01:09:44;;;;;;;11.10;9.37;;;;;;;13.06;91.72;99216.98;1693530;82;21361;-77
2021/05/18 01:12:11;;;;;;;15.77;9.17;;;;;;;13.10;91.67;99211.80;1698565;84;21328;-78
2021/05/18 01:14:38;;;;;;;14.23;9.20;;;;;;;13.14;91.57;99213.55;1693405;82;21420;-75
2021/05/18 01:17:05;;;;;;;12.00;9.30;;;;;;;13.17;91.46;99220.19;1703781;84;21446;-76
2021/05/18 01:19:32;;;;;;;11.20;9.20;;;;;;;13.20;91.34;99221.48;1702179;82;21309;-76
2021/05/18 01:22:01;;;;;;;9.83;8.83;;;;;;;13.19;91.18;99216.63;1700438;84;21528;-75
2021/05/18 01:24:28;;;;;;;12.03;9.40;;;;;;;13.21;91.02;99225.73;1672186;83;21287;-76
2021/05/18 01:26:57;;;;;;;12.57;9.67;;;;;;;13.23;90.88;99218.19;1678911;84;21308;-76
2021/05/18 01:29:24;;;;;;;10.73;9.63;;;;;;;13.23;90.75;99215.50;1684077;83;21341;-76
2021/05/18 01:31:51;;;;;;;14.40;9.33;;;;;;;13.25;90.61;99219.47;1688245;84;21474;-76
2021/05/18 01:34:18;;;;;;;15.83;9.77;;;;;;;13.25;90.49;99220.02;1693412;84;21786;-77
2021/05/18 01:36:46;;;;;;;17.47;9.13;;;;;;;13.23;90.28;99207.45;1686482;84;22068;-77
2021/05/18 01:44:35;;;;;;;10.60;8.83;;;;;;;13.00;89.91;99205.34;1692956;84;21468;-76
2021/05/18 01:47:03;;;;;;;11.10;8.73;;;;;;;12.98;90.01;99196.26;1698580;83;21316;-77
2021/05/18 01:49:32;;;;;;;15.80;9.73;;;;;;;13.00;90.15;99198.09;1705932;83;21323;-76
2021/05/18 01:52:00;;;;;;;16.50;9.60;;;;;;;13.06;90.28;99189.36;1692206;83;21431;-76
2021/05/18 01:54:31;;;;;;;13.20;10.43;;;;;;;13.11;90.36;99193.27;1695377;84;21300;-77
2021/05/18 01:59:29;;;;;;;11.10;10.00;;;;;;;13.12;90.40;99196.17;1691914;84;21445;-75
2021/05/18 02:02:02;;;;;;;10.70;9.58;;;;;;;13.14;90.33;99194.78;1686079;84;21414;-77
2021/05/18 02:04:36;;;;;;;;;;;;;;;13.11;90.21;99191.92;1691123;84;20986;-76
2021/05/18 02:07:14;;;;;;;42.47;12.97;;;;;;;13.06;90.16;99192.03;1692533;84;20217;-76
2021/05/18 02:09:41;;;;;;;26.90;11.03;;;;;;;12.94;90.32;99191.83;1679700;84;21410;-76
2021/05/18 02:12:09;;;;;;;32.73;12.20;;;;;;;12.88;90.51;99196.51;1694352;84;21316;-75
2021/05/18 02:14:39;;;;;;;24.73;12.47;;;;;;;12.81;90.64;99192.92;1679352;84;21958;-76
2021/05/18 02:17:23;;;;;;;29.03;12.20;;;;;;;12.76;90.69;99198.39;1689318;84;21338;-76
2021/05/18 02:20:09;;;;;;;28.67;12.27;;;;;;;12.72;90.82;99201.98;1700652;83;21269;-76
2021/05/18 02:25:10;;;;;;;18.10;10.48;;;;;;;12.60;91.03;99202.52;1701333;84;21321;-77
2021/05/18 02:27:49;;;;;;;17.83;10.27;;;;;;;12.55;91.12;99216.83;1699247;83;21531;-76
2021/05/18 02:30:17;;;;;;;19.33;10.77;;;;;;;12.49;91.19;99213.23;1711103;83;21359;-76
2021/05/18 02:32:45;;;;;;;18.43;11.47;;;;;;;12.38;91.14;99209.98;1699288;82;21195;-76
2021/05/18 02:35:14;;;;;;;11.80;10.00;;;;;;;12.29;91.10;99205.89;1696946;83;21415;-76
2021/05/18 02:37:43;;;;;;;11.33;10.00;;;;;;;12.30;91.20;99204.00;1692966;83;21372;-76
2021/05/18 02:40:19;;;;;;;10.50;9.43;;;;;;;12.36;91.18;99204.13;1708933;83;22773;-76
2021/05/18 02:42:48;;;;;;;10.27;9.27;;;;;;;12.39;91.10;99200.30;1693623;82;21368;-77
2021/05/18 02:50:47;;;;;;;8.67;7.87;;;;;;;12.27;90.97;99212.08;1694195;83;21343;-77
2021/05/18 02:53:16;;;;;;;9.17;8.37;;;;;;;12.19;91.00;99211.46;1694204;82;21731;-77
2021/05/18 02:56:05;;;;;;;8.33;7.53;;;;;;;12.14;91.06;99210.22;1697871;84;21776;-76
2021/05/18 02:58:26;;;;;;;8.23;7.53;;;;;;;12.11;91.17;99214.31;1710860;83;21992;-76
2021/05/18 03:00:53;;;;;;;8.93;8.13;;;;;;;12.12;91.34;99216.44;1699817;83;21430;-77
2021/05/18 03:03:19;;;;;;;8.23;7.50;;;;;;;12.14;91.22;99208.36;1696464;82;21410;-75
2021/05/18 03:05:46;;;;;;;8.70;7.90;;;;;;;12.14;91.22;99208.36;1693476;83;21395;-76
2021/05/18 03:08:14;;;;;;;9.43;8.60;;;;;;;12.17;91.52;99209.62;1716499;83;21504;-76
2021/05/18 03:10:42;;;;;;;8.83;8.03;;;;;;;12.22;91.57;99209.52;1702823;82;21221;-75
2021/05/18 03:13:08;;;;;;;9.53;8.50;;;;;;;12.37;92.09;99211.88;1699124;84;21956;-76
2021/05/18 03:15:36;;;;;;;10.63;9.57;;;;;;;12.37;92.09;99211.88;1667075;85;21443;-77
2021/05/18 03:18:03;;;;;;;9.93;9.00;;;;;;;12.57;91.41;99209.30;1658973;85;21484;-77
2021/05/18 03:20:31;;;;;;;9.63;8.67;;;;;;;12.57;91.41;99209.30;1701836;83;21942;-78
2021/05/18 03:22:58;;;;;;;10.03;8.97;;;;;;;12.57;91.44;99204.45;1700670;84;21422;-78
2021/05/18 03:25:25;;;;;;;10.90;9.70;;;;;;;12.51;91.39;99211.84;1701150;84;21353;-77
2021/05/18 03:27:57;;;;;;;10.77;9.67;;;;;;;12.49;91.44;99219.38;1697930;84;21561;-77
2021/05/18 03:30:26;;;;;;;11.50;9.60;;;;;;;12.57;91.60;99225.89;1699998;83;21388;-77
2021/05/18 03:35:36;;;;;;;12.77;10.27;;;;;;;12.76;91.41;99226.52;1699608;83;21367;-77
2021/05/18 03:38:13;;;;;;;12.80;10.10;;;;;;;12.96;91.17;99222.56;1698873;84;21490;-77
2021/05/18 03:40:32;;;;;;;11.10;9.90;;;;;;;12.96;91.17;99222.56;1703973;83;21541;-76
2021/05/18 03:43:13;;;;;;;11.50;10.30;;;;;;;13.07;91.38;99224.47;1697726;83;21657;-76
2021/05/18 03:45:36;;;;;;;11.33;9.40;;;;;;;13.18;91.35;99219.64;1695808;82;21536;-77
2021/05/18 04:04:21;;;;;;;9.60;8.60;;;;;;;13.90;91.51;99222.59;1698069;82;21847;-76
2021/05/18 04:17:38;;;;;;;8.30;7.50;;;;;;;14.25;90.53;99231.53;1698422;84;21682;-77
2021/05/18 04:22:59;;;;;;;8.67;7.87;;;;;;;14.30;90.16;99232.70;1698217;83;21805;-78
2021/05/18 04:52:29;;;;;;;8.63;7.73;;;;;;;15.10;89.82;99236.45;1700290;83;21151;-75
2021/05/18 04:58:58;;;;;;;8.93;8.03;;;;;;;15.14;89.16;99234.16;1682977;84;21710;-77
2021/05/18 05:00:34;;;;;;;9.53;8.63;;;;;;;15.17;88.34;99238.91;1641864;86;21215;-77
2021/05/18 05:03:19;;;;;;;9.17;8.27;;;;;;;15.20;87.93;99239.61;1703394;82;21662;-77
2021/05/18 05:08:23;;;;;;;9.97;9.07;;;;;;;15.34;87.23;99238.63;1697937;83;21085;-77
2021/05/18 05:15:44;;;;;;;10.57;9.57;;;;;;;15.45;86.25;99226.41;1691070;82;21816;-76
2021/05/18 05:18:13;;;;;;;9.83;8.93;;;;;;;15.47;86.04;99227.67;1678357;84;21065;-74
2021/05/18 05:20:40;;;;;;;10.43;9.53;;;;;;;15.48;85.86;99217.69;1700258;83;21670;-75
2021/05/18 05:23:08;;;;;;;9.17;8.27;;;;;;;15.55;85.89;99226.61;1699591;83;21065;-76
2021/05/18 05:25:34;;;;;;;9.50;8.60;;;;;;;15.67;85.81;99218.69;1695829;82;21081;-77
2021/05/18 05:28:01;;;;;;;9.70;8.80;;;;;;;15.78;85.44;99217.76;1694489;83;21451;-76
2021/05/18 05:30:28;;;;;;;9.40;8.50;;;;;;;15.88;85.17;99214.70;1693289;84;21121;-77
2021/05/18 05:32:55;;;;;;;9.83;8.93;;;;;;;16.01;85.01;99220.41;1699806;83;21089;-74
2021/05/18 05:35:22;;;;;;;9.87;8.90;;;;;;;16.12;84.66;99222.16;1696629;84;21652;-77
2021/05/18 05:37:51;;;;;;;10.00;8.90;;;;;;;16.23;84.13;99215.86;1698424;82;21041;-76
2021/05/18 05:40:18;;;;;;;9.70;8.80;;;;;;;16.33;83.82;99218.16;1698491;82;21682;-77
2021/05/18 05:42:45;;;;;;;9.30;8.37;;;;;;;16.43;83.53;99221.81;1693260;83;21074;-75
2021/05/18 05:45:13;;;;;;;9.97;8.97;;;;;;;16.57;83.25;99216.94;1687288;83;21066;-77
2021/05/18 05:47:40;;;;;;;9.00;8.00;;;;;;;16.69;82.93;99218.13;1699592;84;21057;-77
2021/05/18 05:50:09;;;;;;;8.60;7.80;;;;;;;16.80;82.36;99223.37;1699054;83;21058;-77
2021/05/18 05:52:37;;;;;;;9.77;8.77;;;;;;;16.71;81.80;99208.57;1702005;83;21068;-77
2021/05/18 05:55:08;;;;;;;8.53;7.73;;;;;;;16.58;81.87;99210.45;1708012;83;21120;-78
2021/05/18 05:57:38;;;;;;;9.80;8.80;;;;;;;16.53;82.15;99209.84;1688539;82;21029;-78
2021/05/18 06:00:08;;;;;;;9.13;8.23;;;;;;;16.52;82.35;99215.80;1697201;83;21152;-76
2021/05/18 06:02:34;;;;;;;9.60;8.70;;;;;;;16.54;82.54;99216.81;1707049;83;20987;-77
2021/05/18 06:05:01;;;;;;;9.27;8.37;;;;;;;16.56;82.71;99218.63;1700831;83;21415;-78
2021/05/18 06:07:27;;;;;;;9.43;8.60;;;;;;;16.51;82.64;99214.20;1686853;84;21228;-78
2021/05/18 06:10:00;;;;;;;8.73;7.83;;;;;;;16.48;82.57;99208.13;1692924;84;21004;-78
2021/05/18 06:12:34;;;;;;;8.97;8.17;;;;;;;16.50;82.70;99210.50;1687611;84;21141;-78
2021/05/18 06:47:34;;;;;;;9.10;8.20;;;;;;;18.26;77.86;99184.16;1688729;83;21109;-77
2021/05/18 06:52:42;;;;;;;7.70;6.87;;;;;;;18.62;76.63;99183.27;1686379;84;21579;-78
2021/05/18 06:55:13;;;;;;;8.23;7.23;;;;;;;18.74;76.09;99173.00;1704242;83;21061;-76
2021/05/18 06:57:41;;;;;;;7.70;6.90;;;;;;;18.90;75.92;99179.23;1680945;83;21136;-76
2021/05/18 07:00:11;;;;;;;8.57;6.93;;;;;;;19.03;74.99;99181.31;1699718;83;21109;-77
2021/05/18 07:02:39;;;;;;;8.15;7.45;;;;;;;19.09;74.51;99175.88;1680932;83;21089;-77
2021/05/18 07:07:44;;;;;;;8.70;7.23;;;;;;;19.09;73.22;99179.15;1703325;83;21149;-76
2021/05/18 07:10:12;;;;;;;7.33;6.63;;;;;;;18.99;73.06;99181.80;1696551;83;21098;-76
2021/05/18 07:12:39;;;;;;;7.50;6.70;;;;;;;18.97;73.12;99175.36;1704831;83;21045;-76
2021/05/18 07:15:07;;;;;;;7.97;7.10;;;;;;;18.91;73.02;99175.39;1704197;83;21544;-76
2021/05/18 07:17:33;;;;;;;7.17;6.47;;;;;;;18.83;73.18;99177.70;1694218;83;21004;-76
2021/05/18 07:20:00;;;;;;;7.87;7.07;;;;;;;18.81;73.46;99177.81;1699041;83;21129;-80
2021/05/18 07:22:28;;;;;;;7.77;6.97;;;;;;;18.73;73.19;99181.69;1703515;83;21069;-82
2021/05/18 07:24:55;;;;;;;8.03;7.23;;;;;;;18.64;73.48;99181.58;1705677;84;21173;-82
2021/05/18 07:27:22;;;;;;;9.63;7.03;;;;;;;18.54;73.90;99179.37;1700266;83;21081;-78
2021/05/18 07:29:49;;;;;;;10.03;7.40;;;;;;;18.48;74.19;99175.54;1697136;83;21078;-81
2021/05/18 07:32:15;;;;;;;8.10;6.53;;;;;;;18.37;74.50;99179.87;1704828;83;21085;-79
2021/05/18 07:34:44;;;;;;;8.43;7.63;;;;;;;18.29;74.95;99180.77;1705732;83;21142;-78
2021/05/18 07:37:10;;;;;;;8.87;8.07;;;;;;;18.17;75.26;99182.95;1705525;83;21130;-77
2021/05/18 07:39:37;;;;;;;7.60;6.90;;;;;;;18.10;75.57;99185.98;1698752;82;21069;-78
2021/05/18 07:42:05;;;;;;;7.70;6.93;;;;;;;17.99;76.06;99183.76;1694131;84;21638;-80
2021/05/18 07:44:31;;;;;;;14.00;8.90;;;;;;;17.90;76.54;99179.06;1695037;84;21597;-78
2021/05/18 07:46:58;;;;;;;9.37;8.47;;;;;;;17.78;76.77;99179.84;1696361;84;21095;-78
2021/05/18 07:49:31;;;;;;;11.27;10.10;;;;;;;17.71;77.10;99176.12;1693106;83;21185;-78
2021/05/18 08:05:31;;;;;;;11.97;10.77;;;;;;;17.72;79.25;99184.44;1691077;84;21073;-78
2021/05/18 08:07:56;;;;;;;12.43;11.23;;;;;;;17.80;78.64;99177.61;1703098;83;21747;-78
2021/05/18 08:10:42;;;;;;;12.90;11.70;;;;;;;17.83;78.37;99180.17;1698356;83;21380;-77
2021/05/18 08:12:52;;;;;;;12.40;11.23;;;;;;;17.92;78.20;99180.84;1697716;82;21678;-78
2021/05/18 08:18:15;;;;;;;12.07;10.90;;;;;;;18.13;77.79;99188.83;1699811;83;21101;-77
2021/05/18 10:34:42;;;;;;;2.67;1.73;;;;;;;20.15;60.56;99051.38;1697044;82;21120;-75
2021/05/18 10:37:27;;;;;;;5.13;2.00;;;;;;;20.11;60.88;99053.23;1694011;83;21456;-77
2021/05/18 10:40:25;;;;;;;4.60;2.57;;;;;;;20.10;61.45;99048.94;1648308;85;21687;-77
2021/05/18 10:43:13;;;;;;;3.20;1.90;;;;;;;20.07;62.38;99034.20;1680395;84;21086;-78
2021/05/18 10:46:00;;;;;;;3.03;1.60;;;;;;;20.05;62.79;99031.05;1682947;83;21160;-79
2021/05/18 10:48:39;;;;;;;2.53;1.80;;;;;;;19.99;62.40;99034.41;1697079;84;21588;-77
2021/05/18 10:51:33;;;;;;;2.93;1.80;;;;;;;19.94;62.41;99040.09;1700044;84;21113;-76
2021/05/18 10:54:24;;;;;;;3.27;2.07;;;;;;;19.92;62.43;99052.66;1682152;84;21089;-76
2021/05/18 10:56:59;;;;;;;3.90;2.40;;;;;;;19.89;62.94;99066.34;1696929;83;26743;-76
2021/05/18 10:59:54;;;;;;;3.57;2.30;;;;;;;19.77;64.03;99062.40;1699011;83;21140;-76
2021/05/18 11:02:34;;;;;;;2.57;1.40;;;;;;;19.69;64.83;99062.05;1695792;82;21064;-76
2021/05/18 11:05:08;;;;;;;1.80;1.20;;;;;;;19.48;63.49;99071.81;1684571;84;21599;-73
2021/05/18 11:07:39;;;;;;;2.17;0.97;;;;;;;19.13;61.46;99083.94;1694361;83;21145;-75
2021/05/18 11:10:16;;;;;;;1.50;1.05;;;;;;;18.73;61.59;99087.59;1686232;84;21041;-74
2021/05/18 11:12:46;;;;;;;2.47;1.10;;;;;;;18.25;62.17;99088.00;1693110;83;21049;-73
2021/05/18 11:15:15;;;;;;;2.73;1.10;;;;;;;17.74;63.59;99090.38;1697105;83;21444;-74
2021/05/18 11:17:46;;;;;;;2.63;0.87;;;;;;;17.26;64.75;99090.62;1691049;83;21086;-75
2021/05/18 11:23:23;;;;;;;3.40;1.37;;;;;;;16.67;67.37;99101.73;1689341;83;21100;-74
2021/05/18 11:26:07;;;;;;;5.83;1.47;;;;;;;16.43;68.51;99095.15;1692859;84;22163;-73
2021/05/18 11:28:41;;;;;;;3.83;1.50;;;;;;;16.24;69.75;99080.81;1705909;83;21104;-74
2021/05/18 11:31:19;;;;;;;3.80;1.80;;;;;;;16.15;70.67;99067.41;1692205;82;21483;-74
2021/05/18 11:33:54;;;;;;;2.83;1.45;;;;;;;16.10;71.35;99058.76;1694170;82;21117;-74
2021/05/18 11:36:28;;;;;;;5.83;1.70;;;;;;;16.03;72.71;99055.25;1690262;84;21060;-74
2021/05/18 11:39:06;;;;;;;4.77;2.07;;;;;;;15.93;73.96;99051.61;1685594;83;21891;-74
2021/05/18 11:41:41;;;;;;;4.13;2.00;;;;;;;15.80;75.26;99047.28;1691410;82;21042;-75
2021/05/18 11:44:11;;;;;;;6.80;2.10;;;;;;;15.68;76.45;99043.39;1697071;83;21424;-75
2021/05/18 11:46:51;;;;;;;5.67;2.17;;;;;;;15.61;77.37;99043.09;1704329;82;21065;-75
2021/05/18 11:49:21;;;;;;;5.97;2.10;;;;;;;15.58;78.09;99041.05;1704634;83;21110;-75
2021/05/18 11:51:53;;;;;;;6.80;2.53;;;;;;;15.56;78.60;99041.14;1689548;83;21074;-75
2021/05/18 11:54:22;;;;;;;5.17;2.40;;;;;;;15.61;79.26;99049.83;1697496;82;21510;-75
2021/05/18 11:56:52;;;;;;;9.50;2.67;;;;;;;15.70;79.85;99052.50;1699532;83;21168;-76
2021/05/18 11:59:22;;;;;;;5.10;2.77;;;;;;;15.78;80.22;99056.23;1692008;84;21149;-75
2021/05/18 12:01:58;;;;;;;7.30;3.07;;;;;;;15.87;80.58;99063.13;1698518;83;21116;-74
2021/05/18 12:04:26;;;;;;;6.17;2.70;;;;;;;15.93;80.95;99061.82;1697971;83;21054;-74
2021/05/18 12:07:08;;;;;;;6.33;3.20;;;;;;;16.00;81.32;99051.87;1692468;83;21672;-75
2021/05/18 12:09:36;;;;;;;;;;;;;;;16.03;81.65;99051.21;1700813;83;21169;-78
2021/05/18 12:12:11;;;;;;;8.73;4.13;;;;;;;16.08;82.04;99053.69;1685892;83;20246;-76
2021/05/18 12:14:45;;;;;;;5.23;3.20;;;;;;;16.11;82.32;99051.68;1694607;83;21073;-78
2021/05/18 12:17:12;;;;;;;6.00;3.17;;;;;;;16.13;82.57;99040.59;1701742;83;21115;-75
2021/05/18 12:19:40;;;;;;;6.77;3.30;;;;;;;16.13;82.76;99035.98;1706604;83;21084;-78
2021/05/18 12:22:07;;;;;;;5.50;3.43;;;;;;;16.13;82.92;99033.30;1700274;83;21086;-76
2021/05/18 12:24:40;;;;;;;6.77;3.20;;;;;;;16.13;83.08;99034.64;1697762;84;21125;-77
2021/05/18 12:27:08;;;;;;;5.77;2.70;;;;;;;16.14;83.23;99028.13;1696194;83;21631;-78
2021/05/18 12:29:52;;;;;;;5.27;2.47;;;;;;;16.11;83.26;99034.73;1707696;83;21491;-76
2021/05/18 12:32:23;;;;;;;4.60;2.60;;;;;;;16.06;83.31;99038.44;1680188;83;21690;-79
2021/05/18 12:34:58;;;;;;;4.45;2.70;;;;;;;16.08;83.30;99028.10;1693994;82;21184;-78
2021/05/18 12:37:49;;;;;;;5.70;2.90;;;;;;;16.09;83.16;99020.80;1703040;83;21103;-78
2021/05/18 12:40:20;;;;;;;6.30;2.97;;;;;;;16.12;83.11;99026.88;1683190;83;21075;-79
2021/05/18 12:42:48;;;;;;;4.85;2.60;;;;;;;16.09;83.22;99024.31;1696499;82;21098;-80
2021/05/18 12:45:21;;;;;;;5.57;2.63;;;;;;;16.02;83.42;99028.07;1695693;83;21092;-79
2021/05/18 12:47:59;;;;;;;3.80;2.10;;;;;;;15.97;83.68;99028.29;1698003;84;21057;-78
2021/05/18 12:50:50;;;;;;;3.63;2.10;;;;;;;15.89;83.90;99037.20;1703912;84;21148;-76
2021/05/18 12:53:28;;;;;;;3.03;1.70;;;;;;;15.81;84.04;99033.48;1693438;83;22305;-77
2021/05/18 12:55:57;;;;;;;2.90;1.20;;;;;;;15.76;83.96;99032.34;1692531;84;21510;-78
2021/05/18 12:58:33;;;;;;;3.37;1.73;;;;;;;15.69;83.13;99020.76;1698382;83;21129;-77
2021/05/18 13:01:12;;;;;;;4.03;2.27;;;;;;;15.70;82.21;99020.20;1693497;82;21094;-78
2021/05/18 13:03:40;;;;;;;5.20;1.93;;;;;;;15.71;81.72;99017.16;1701250;83;21165;-77
2021/05/18 13:06:06;;;;;;;3.70;1.70;;;;;;;15.76;81.27;99024.80;1665975;85;21005;-76
2021/05/18 13:08:38;;;;;;;3.40;2.07;;;;;;;15.83;81.10;99021.05;1642157;85;21655;-77
2021/05/18 13:13:59;;;;;;;3.47;1.80;;;;;;;15.99;81.27;99026.59;1691738;82;21135;-75
2021/05/18 13:16:31;;;;;;;3.33;1.67;;;;;;;16.07;81.37;99023.84;1698173;84;21018;-75
2021/05/18 13:19:08;;;;;;;2.73;1.50;;;;;;;16.18;81.22;99021.52;1697688;84;21056;-77
2021/05/18 13:21:50;;;;;;;3.10;1.93;;;;;;;16.42;81.34;99018.13;1695208;84;21176;-71
2021/05/18 13:26:25;;;;;;;4.30;2.30;;;;;;;16.82;81.58;99016.20;1697651;84;21080;-70
2021/05/18 13:26:51;;;;;;;4.93;2.30;;;;;;;17.19;80.77;99021.03;1689745;84;21133;-70
2021/05/18 13:29:19;;;;;;;3.70;2.60;;;;;;;17.58;79.55;99016.81;1696483;83;21089;-77
2021/05/18 13:31:52;;;;;;;4.93;2.90;;;;;;;17.99;78.38;99014.12;1711359;83;20987;-78
2021/05/18 13:34:19;;;;;;;5.63;3.50;;;;;;;18.42;76.47;99009.87;1702354;84;21453;-78
2021/05/18 13:36:47;;;;;;;4.77;3.60;;;;;;;18.77;75.31;99012.72;1664264;84;21025;-77
2021/05/18 13:39:16;;;;;;;4.83;3.40;;;;;;;18.97;73.99;99010.31;1657969;85;21552;-77
2021/05/18 13:41:43;;;;;;;5.43;3.80;;;;;;;19.02;72.53;99007.11;1670087;84;21025;-78
2021/05/18 13:44:09;;;;;;;3.90;2.70;;;;;;;19.08;71.64;99017.89;1674671;84;21065;-78
2021/05/18 13:46:37;;;;;;;4.53;2.73;;;;;;;19.03;69.71;99015.47;1659524;86;21245;-77
2021/05/18 13:49:04;;;;;;;4.63;3.00;;;;;;;18.82;68.61;99023.30;1704144;83;21125;-76
2021/05/18 13:51:32;;;;;;;5.53;3.40;;;;;;;18.61;68.36;99018.66;1705509;83;21082;-77
2021/05/18 13:54:00;;;;;;;6.50;4.10;;;;;;;18.37;69.85;99026.36;1703280;84;21144;-77
2021/05/18 13:56:27;;;;;;;8.00;3.83;;;;;;;18.12;70.79;99028.38;1694668;83;21655;-76
2021/05/18 13:58:54;;;;;;;5.93;3.27;;;;;;;17.98;70.66;99026.86;1677121;83;21140;-76
2021/05/18 14:01:22;;;;;;;6.13;3.60;;;;;;;17.83;70.40;99010.58;1704928;83;21030;-76
2021/05/18 14:03:48;;;;;;;5.37;3.60;;;;;;;17.69;70.74;99004.19;1704929;83;21153;-78
2021/05/18 14:06:16;;;;;;;6.17;3.10;;;;;;;17.58;71.40;99004.67;1698677;82;21201;-77
2021/05/18 14:08:43;;;;;;;5.23;2.60;;;;;;;17.53;72.05;98999.49;1704159;83;21552;-77
2021/05/18 14:11:18;;;;;;;5.90;3.10;;;;;;;17.37;73.28;99001.33;1701689;82;21023;-77
2021/05/18 14:13:54;;;;;;;4.43;2.57;;;;;;;17.17;73.71;98994.94;1696485;83;21105;-76
2021/05/18 14:16:22;;;;;;;3.63;2.30;;;;;;;17.06;74.21;98993.84;1699568;82;21070;-77
2021/05/18 14:18:55;;;;;;;4.13;2.97;;;;;;;16.97;75.31;98985.85;1700678;83;21017;-77
2021/05/18 14:21:23;;;;;;;3.17;2.17;;;;;;;16.90;76.12;98986.98;1704516;83;21603;-77
2021/05/18 14:26:22;;;;;;;4.17;2.20;;;;;;;16.92;76.53;98988.01;1699322;82;21492;-78
2021/05/18 14:28:51;;;;;;;4.37;2.50;;;;;;;16.94;77.03;98983.83;1702862;84;21525;-77
2021/05/18 14:31:18;;;;;;;5.27;2.63;;;;;;;16.93;77.52;98984.95;1703558;83;21082;-77
2021/05/18 14:33:45;;;;;;;3.73;2.60;;;;;;;16.94;77.95;98991.13;1699115;84;21088;-78
2021/05/18 14:36:13;;;;;;;3.83;2.60;;;;;;;16.96;78.34;98984.28;1695671;82;21647;-78
2021/05/18 14:38:42;;;;;;;4.87;3.70;;;;;;;17.00;78.46;98986.52;1696345;84;21089;-77
2021/05/18 14:44:00;;;;;;;4.93;3.63;;;;;;;16.99;78.92;98994.41;1709709;83;21035;-78
2021/05/18 14:56:55;;;;;;;3.63;2.30;;;;;;;17.07;77.45;98981.91;1690308;83;21716;-78
2021/05/18 14:59:22;;;;;;;4.40;2.57;;;;;;;17.05;77.72;98989.01;1688395;84;21196;-78
2021/05/18 15:01:50;;;;;;;4.43;2.60;;;;;;;17.01;78.00;98990.81;1694557;84;21874;-76
2021/05/18 15:04:17;;;;;;;5.30;3.20;;;;;;;17.01;78.42;98990.81;1698180;84;21101;-76
2021/05/18 15:06:44;;;;;;;5.17;4.67;;;;;;;17.01;78.55;98982.72;1693754;83;21050;-77
2021/05/18 15:09:11;;;;;;;5.63;4.63;;;;;;;17.07;78.59;98981.34;1695572;84;21050;-75
2021/05/18 15:11:38;;;;;;;8.13;7.33;;;;;;;17.25;78.83;98977.86;1632939;87;21101;-75
2021/05/18 15:14:06;;;;;;;7.77;5.83;;;;;;;17.58;78.83;98976.32;1623564;86;21117;-78
2021/05/18 15:16:33;;;;;;;6.67;5.60;;;;;;;18.09;78.21;98977.73;1699688;83;21101;-77
2021/05/18 15:19:14;;;;;;;5.20;3.70;;;;;;;18.72;76.91;98966.99;1696603;83;21080;-80
2021/05/18 15:21:38;;;;;;;4.23;2.80;;;;;;;19.48;75.46;98965.40;1693746;82;21619;-77
2021/05/18 15:24:07;;;;;;;4.07;2.60;;;;;;;20.52;73.00;98967.62;1698029;83;20993;-79
2021/05/18 15:26:35;;;;;;;4.67;2.47;;;;;;;21.51;70.11;98966.77;1704014;83;21307;-77
2021/05/18 15:29:05;;;;;;;4.97;3.13;;;;;;;22.42;66.34;98966.05;1698843;82;21588;-79
2021/05/18 15:31:33;;;;;;;4.75;3.35;;;;;;;23.22;62.29;98962.19;1696275;84;21029;-76
2021/05/18 15:33:59;;;;;;;4.43;2.87;;;;;;;23.72;59.19;98957.58;1702985;83;21138;-77
2021/05/18 15:36:26;;;;;;;4.23;2.90;;;;;;;24.20;57.57;98962.78;1706262;83;21043;-77
2021/05/18 15:38:54;;;;;;;3.70;2.63;;;;;;;24.75;55.87;98955.63;1696017;82;21193;-78
2021/05/18 15:41:21;;;;;;;4.40;1.97;;;;;;;25.24;54.13;98953.42;1698096;83;21089;-77
2021/05/18 15:43:49;;;;;;;3.00;2.00;;;;;;;25.70;52.29;98944.86;1705824;84;20967;-77
2021/05/18 15:46:16;;;;;;;4.77;2.40;;;;;;;25.68;51.05;98945.25;1706089;83;21182;-78
2021/05/18 15:48:44;;;;;;;4.53;2.50;;;;;;;25.59;51.25;98942.16;1697247;82;21097;-78
2021/05/18 15:51:11;;;;;;;5.10;2.60;;;;;;;25.60;50.40;98929.26;1701819;84;21088;-79
2021/05/18 15:53:39;;;;;;;5.00;2.50;;;;;;;25.48;50.72;98920.34;1711372;83;21144;-78
2021/05/18 15:56:08;;;;;;;4.50;2.63;;;;;;;25.32;50.67;98920.60;1700580;83;21129;-78
2021/05/18 15:58:35;;;;;;;3.77;2.40;;;;;;;24.91;51.32;98925.96;1698532;82;21505;-78
2021/05/18 16:01:03;;;;;;;4.00;2.27;;;;;;;24.54;51.75;98936.70;1698764;83;21034;-79
2021/05/18 16:03:29;;;;;;;7.90;3.47;;;;;;;23.86;52.37;98946.73;1698893;83;21741;-74
2021/05/18 16:06:00;;;;;;;6.33;2.97;;;;;;;23.21;54.76;98982.42;1702475;84;20987;-75
2021/05/18 16:11:05;;;;;;;4.80;2.70;;;;;;;22.11;58.41;98975.42;1702382;83;21080;-78
2021/05/18 16:13:33;;;;;;;5.70;2.90;;;;;;;21.40;59.47;98968.58;1709597;83;21053;-79
2021/05/18 16:16:06;;;;;;;4.97;2.97;;;;;;;20.77;61.04;98964.55;1697688;83;21049;-80
2021/05/18 16:18:35;;;;;;;5.00;3.03;;;;;;;20.38;62.12;98954.58;1695279;83;21096;-79
2021/05/18 16:21:02;;;;;;;5.10;3.40;;;;;;;20.05;63.13;98951.09;1693572;84;21045;-77
2021/05/18 16:23:29;;;;;;;4.13;3.00;;;;;;;19.79;64.08;98936.86;1699280;83;21092;-78
2021/05/18 16:25:56;;;;;;;4.87;3.40;;;;;;;19.52;65.01;98937.84;1661480;85;21642;-79
2021/05/18 16:28:24;;;;;;;5.17;3.33;;;;;;;19.29;65.94;98937.76;1707292;83;21506;-79
2021/05/18 16:30:51;;;;;;;5.67;3.07;;;;;;;19.03;66.90;98931.59;1700184;83;21043;-78
2021/05/18 16:33:18;;;;;;;5.60;3.40;;;;;;;18.78;67.98;98926.95;1686567;84;21058;-78
2021/05/18 16:35:45;;;;;;;7.73;3.80;;;;;;;18.40;69.08;98929.13;1697818;82;21117;-77
2021/05/18 16:38:12;;;;;;;6.10;4.07;;;;;;;18.10;70.54;98937.41;1685094;84;21062;-77
2021/05/18 16:40:38;;;;;;;5.73;3.90;;;;;;;17.78;72.03;98941.41;1695600;84;21057;-78
2021/05/18 16:43:07;;;;;;;6.40;4.10;;;;;;;17.52;73.26;98934.49;1699672;84;21089;-80
2021/05/18 16:45:35;;;;;;;6.57;3.77;;;;;;;17.34;74.40;98933.19;1696876;84;21065;-79
2021/05/18 16:48:05;;;;;;;5.23;4.00;;;;;;;17.11;75.21;98935.63;1697466;83;21658;-79
2021/05/18 16:50:33;;;;;;;6.97;4.37;;;;;;;16.90;75.78;98928.22;1693832;84;21029;-79